LIBN/LCC METAR and TAF weather

Enter ICAO airport designator
Station Type Date Time Source
LIBN METAR 2019/02/22 23:55 UTC NOAA

LIBN 222355Z 35007KT 9999 FEW040 10/07 Q1014 RMK BKN BKN080 VIS MIN 9999 WIND THR14 35009KT WIND THR32 35009KT BLU


Station Type Date Time Source
LIBN Decoded METAR 2019/02/22 23:55 UTC NOAA

Lecce, Italy (LIBN) 40-14N 018-09E 61M
Feb 22, 2019 - 06:55 PM EST / 2019.02.22 2355 UTC
Wind: from the N (350 degrees) at 8 MPH (7 KT):0
Visibility: greater than 7 mile(s):0
Sky conditions: mostly clear
Temperature: 50 F (10 C)
Dew Point: 44 F (7 C)
Relative Humidity: 81%
Pressure (altimeter): 29.94 in. Hg (1014 hPa)
ob: LIBN 222355Z 35007KT 9999 FEW040 10/07 Q1014 RMK BKN BKN080 VIS MIN 9999 WIND THR14 35009KT WIND THR32 35009KT BLU
cycle: 0

Station Type Date Time Source
LIBN TAF 2018/05/28 12:27 UTC NOAA

TAF TAF LIBN 281100Z 2812/2824 02012KT 9999 FEW030
BECMG 2813/2814 CAVOK


Example: see airport list